createdAt,value
2024-01-11T00:02:11.219Z,5.13
2024-01-11T00:04:41.390Z,5.47
2024-01-11T00:07:11.478Z,6.05
2024-01-11T00:09:42.452Z,5.90
2024-01-11T00:12:14.218Z,6.57
2024-01-11T00:14:43.139Z,6.53
2024-01-11T00:17:11.567Z,7.03
2024-01-11T00:19:40.513Z,5.75
2024-01-11T00:22:08.870Z,5.18
2024-01-11T00:24:39.607Z,6.75
2024-01-11T00:27:12.884Z,7.50
2024-01-11T00:29:41.613Z,5.82
2024-01-11T00:32:09.889Z,6.15
2024-01-11T00:34:38.478Z,4.22
2024-01-11T00:37:09.736Z,4.53
2024-01-11T00:39:37.838Z,5.80
2024-01-11T00:42:06.633Z,4.68
2024-01-11T00:44:36.354Z,5.72
2024-01-11T00:47:08.106Z,5.35
2024-01-11T00:49:37.047Z,4.80
2024-01-11T00:52:06.097Z,5.45
2024-01-11T00:54:34.263Z,4.13
2024-01-11T00:57:02.346Z,5.30
2024-01-11T00:59:32.221Z,4.93
2024-01-11T01:02:02.347Z,5.32
2024-01-11T01:04:30.526Z,5.32
2024-01-11T01:06:58.612Z,4.45
2024-01-11T01:09:26.813Z,5.45
2024-01-11T01:11:55.090Z,7.80
2024-01-11T01:14:23.272Z,5.25
2024-01-11T01:16:51.561Z,5.32
2024-01-11T01:23:59.984Z,5.95
2024-01-11T01:26:54.467Z,6.70
2024-01-11T01:29:23.016Z,6.03
2024-01-11T01:31:51.107Z,6.45
2024-01-11T01:34:20.198Z,6.97
2024-01-11T01:36:48.337Z,5.57
2024-01-11T01:39:18.198Z,6.55
2024-01-11T01:41:46.187Z,5.45
2024-01-11T01:44:14.332Z,4.95
2024-01-11T01:46:43.610Z,5.75
2024-01-11T01:49:14.126Z,7.43
2024-01-11T01:51:42.577Z,5.60
2024-01-11T01:54:10.815Z,6.15
2024-01-11T01:56:40.449Z,6.30
2024-01-11T01:59:09.542Z,5.93
2024-01-11T02:01:38.012Z,6.40
2024-01-11T02:04:06.865Z,6.70
2024-01-11T02:06:36.526Z,4.88
2024-01-11T02:09:05.739Z,5.30
2024-01-11T02:11:35.552Z,5.70
2024-01-11T02:14:06.010Z,6.03
2024-01-11T02:16:34.976Z,6.38
2024-01-11T02:19:03.395Z,7.15
2024-01-11T02:21:33.313Z,6.57
2024-01-11T02:24:08.287Z,6.30
2024-01-11T02:26:36.873Z,6.90
2024-01-11T02:29:05.311Z,5.63
2024-01-11T02:31:37.290Z,7.45
2024-01-11T02:34:06.162Z,6.13
2024-01-11T02:36:34.581Z,7.35
2024-01-11T02:39:03.360Z,6.85
2024-01-11T02:41:34.834Z,7.15
2024-01-11T02:44:03.981Z,9.25
2024-01-11T02:46:32.966Z,5.95
2024-01-11T02:49:01.647Z,6.82
2024-01-11T02:51:29.883Z,8.80
2024-01-11T02:53:59.176Z,6.40
2024-01-11T02:56:27.499Z,7.25
2024-01-11T02:58:58.144Z,8.10
2024-01-11T03:01:26.602Z,7.03
2024-01-11T03:03:54.787Z,7.07
2024-01-11T03:06:23.937Z,6.50
2024-01-11T03:08:52.032Z,8.65
2024-01-11T03:11:20.376Z,7.00
2024-01-11T03:13:48.569Z,7.10
2024-01-11T03:16:17.950Z,7.78
2024-01-11T03:18:46.166Z,6.93
2024-01-11T03:21:14.607Z,5.78
2024-01-11T03:23:42.758Z,7.72
2024-01-11T03:26:15.559Z,7.53
2024-01-11T03:28:43.798Z,6.95
2024-01-11T03:31:12.844Z,7.28
2024-01-11T03:33:42.854Z,6.95
2024-01-11T03:36:12.063Z,7.60
2024-01-11T03:38:40.818Z,8.55
2024-01-11T03:41:12.734Z,6.35
2024-01-11T03:43:41.028Z,7.05
2024-01-11T03:46:08.163Z,7.38
2024-01-11T03:48:37.189Z,8.02
2024-01-11T03:51:09.517Z,7.80
2024-01-11T03:53:39.284Z,8.20
2024-01-11T03:56:07.761Z,8.30
2024-01-11T03:58:40.465Z,7.03
2024-01-11T04:01:11.830Z,7.40
2024-01-11T04:03:40.289Z,6.68
2024-01-11T04:06:10.345Z,7.47
2024-01-11T04:08:38.732Z,7.68
2024-01-11T04:11:08.157Z,7.05
2024-01-11T04:13:40.130Z,8.45
2024-01-11T04:16:08.956Z,9.77
2024-01-11T04:18:37.248Z,8.30
2024-01-11T04:21:06.054Z,8.98
2024-01-11T04:23:38.759Z,8.55
2024-01-11T04:26:06.895Z,8.40
2024-01-11T04:28:34.882Z,6.35
2024-01-11T04:31:02.948Z,7.55
2024-01-11T04:33:31.166Z,7.80
2024-01-11T04:35:59.595Z,6.65
2024-01-11T04:38:27.755Z,7.32
2024-01-11T04:40:57.638Z,7.57
2024-01-11T04:43:25.763Z,7.55
2024-01-11T04:45:54.200Z,8.20
2024-01-11T04:48:22.378Z,8.18
2024-01-11T04:50:50.881Z,9.23
2024-01-11T04:53:19.677Z,7.25
2024-01-11T04:55:47.794Z,8.15
2024-01-11T04:58:17.561Z,6.25
2024-01-11T05:00:45.634Z,6.68
2024-01-11T05:03:13.773Z,8.07
2024-01-11T05:05:42.151Z,7.50
2024-01-11T05:08:10.342Z,7.63
2024-01-11T05:10:38.498Z,7.10
2024-01-11T05:13:06.625Z,8.00
2024-01-11T05:15:36.882Z,7.55
2024-01-11T05:18:05.890Z,8.15
2024-01-11T05:20:34.281Z,7.80
2024-01-11T05:23:02.910Z,9.55
2024-01-11T05:25:34.742Z,7.13
2024-01-11T05:28:03.636Z,7.35
2024-01-11T05:30:32.053Z,8.88
2024-01-11T05:33:02.232Z,7.80
2024-01-11T05:35:30.478Z,7.63
2024-01-11T05:37:58.926Z,10.30
2024-01-11T05:40:27.148Z,9.43
2024-01-11T05:42:55.225Z,7.35
2024-01-11T05:45:29.142Z,9.63
2024-01-11T05:48:07.213Z,8.07
2024-01-11T05:50:35.437Z,9.32
2024-01-11T05:53:03.984Z,11.00
2024-01-11T05:55:32.178Z,10.80
2024-01-11T05:58:00.260Z,11.32
2024-01-11T06:00:28.422Z,9.20
2024-01-11T06:02:56.548Z,9.35
2024-01-11T06:05:26.425Z,7.72
2024-01-11T06:07:54.535Z,9.30
2024-01-11T06:10:22.684Z,8.52
2024-01-11T06:12:50.880Z,7.30
2024-01-11T06:15:19.502Z,8.07
2024-01-11T06:17:47.734Z,8.63
2024-01-11T06:20:16.270Z,8.70
2024-01-11T06:22:46.398Z,11.32
2024-01-11T06:25:16.103Z,9.30
2024-01-11T06:27:44.931Z,10.43
2024-01-11T06:30:14.075Z,8.05
2024-01-11T06:32:42.204Z,8.65
2024-01-11T06:35:10.786Z,9.52
2024-01-11T06:37:39.925Z,9.70
2024-01-11T06:40:10.395Z,8.27
2024-01-11T06:42:38.435Z,8.48
2024-01-11T06:45:07.820Z,10.95
2024-01-11T06:47:36.062Z,9.60
2024-01-11T06:50:04.760Z,10.88
2024-01-11T06:52:32.822Z,11.73
2024-01-11T06:55:02.116Z,11.80
2024-01-11T06:57:31.550Z,10.80
2024-01-11T06:59:59.724Z,10.63
2024-01-11T07:02:28.024Z,9.60
2024-01-11T07:04:56.471Z,10.05
2024-01-11T07:07:24.603Z,12.55
2024-01-11T07:09:56.223Z,12.18
2024-01-11T07:12:24.477Z,10.55
2024-01-11T07:14:54.099Z,11.30
2024-01-11T07:17:24.056Z,10.15
2024-01-11T07:19:52.102Z,13.18
2024-01-11T07:22:20.324Z,10.95
2024-01-11T07:24:48.406Z,9.57
2024-01-11T07:27:16.995Z,11.05
2024-01-11T07:29:45.143Z,15.20
2024-01-11T07:32:14.796Z,13.07
2024-01-11T07:34:43.025Z,14.57
2024-01-11T07:37:11.514Z,13.77
2024-01-11T07:39:39.634Z,14.18
2024-01-11T07:42:09.133Z,14.40
2024-01-11T07:44:37.333Z,15.48
2024-01-11T07:47:05.716Z,16.42
2024-01-11T07:49:35.110Z,16.05
2024-01-11T07:52:03.431Z,17.15
2024-01-11T07:54:33.212Z,16.20
2024-01-11T07:57:01.314Z,16.95
2024-01-11T07:59:29.365Z,14.70
2024-01-11T08:01:57.684Z,17.05
2024-01-11T08:04:25.947Z,16.73
2024-01-11T08:06:55.482Z,17.65
2024-01-11T08:09:23.572Z,16.02
2024-01-11T08:11:52.755Z,15.35
2024-01-11T08:14:21.949Z,17.15
2024-01-11T08:16:50.173Z,15.98
2024-01-11T08:19:18.467Z,16.67
2024-01-11T08:21:46.648Z,16.42
2024-01-11T08:24:16.065Z,15.65
2024-01-11T08:26:44.852Z,16.88
2024-01-11T08:29:13.912Z,16.20
2024-01-11T08:31:44.955Z,18.52
2024-01-11T08:34:13.423Z,17.80
2024-01-11T08:36:41.612Z,16.85
2024-01-11T08:39:12.689Z,18.45
2024-01-11T08:41:42.527Z,19.83
2024-01-11T08:44:12.113Z,21.05
2024-01-11T08:46:40.320Z,22.42
2024-01-11T08:49:08.896Z,20.02
2024-01-11T08:51:37.216Z,18.33
2024-01-11T08:54:10.087Z,18.23
2024-01-11T08:56:38.437Z,16.77
2024-01-11T08:59:10.074Z,17.50
2024-01-11T09:01:38.509Z,15.50
2024-01-11T09:04:07.494Z,15.23
2024-01-11T09:06:35.771Z,16.95
2024-01-11T09:09:03.927Z,16.55
2024-01-11T09:11:33.094Z,15.93
2024-01-11T09:14:01.220Z,14.73
2024-01-11T09:16:31.014Z,15.98
2024-01-11T09:19:01.281Z,14.35
2024-01-11T09:21:29.414Z,14.13
2024-01-11T09:23:57.483Z,14.80
2024-01-11T09:26:25.719Z,13.95
2024-01-11T09:28:53.792Z,14.48
2024-01-11T09:31:21.876Z,13.93
2024-01-11T09:33:51.745Z,15.63
2024-01-11T09:36:20.587Z,14.85
2024-01-11T09:38:49.976Z,13.02
2024-01-11T09:41:20.122Z,14.68
2024-01-11T09:43:52.579Z,14.98
2024-01-11T09:46:22.089Z,15.27
2024-01-11T09:48:52.854Z,14.13
2024-01-11T09:51:21.262Z,15.02
2024-01-11T09:53:52.210Z,15.05
2024-01-11T09:56:20.922Z,14.40
2024-01-11T09:58:51.301Z,14.00
2024-01-11T10:01:20.042Z,14.95
2024-01-11T10:03:48.400Z,16.52
2024-01-11T10:06:19.886Z,13.90
2024-01-11T10:08:48.226Z,13.07
2024-01-11T10:11:16.759Z,14.30
2024-01-11T10:13:46.240Z,14.70
2024-01-11T10:16:16.646Z,15.35
2024-01-11T10:18:45.618Z,15.27
2024-01-11T10:21:13.843Z,13.45
2024-01-11T10:23:44.093Z,11.73
2024-01-11T10:26:12.185Z,12.73
2024-01-11T10:28:41.430Z,12.38
2024-01-11T10:31:09.611Z,11.40
2024-01-11T10:33:38.893Z,13.07
2024-01-11T10:36:08.879Z,11.10
2024-01-11T10:38:39.615Z,10.75
2024-01-11T10:41:11.065Z,13.52
2024-01-11T10:43:40.298Z,11.50
2024-01-11T10:46:09.951Z,13.32
2024-01-11T10:48:41.179Z,11.60
2024-01-11T10:51:17.286Z,10.73
2024-01-11T10:53:47.524Z,11.98
2024-01-11T10:56:18.221Z,11.95
2024-01-11T10:58:47.680Z,13.20
2024-01-11T11:01:16.415Z,11.95
2024-01-11T11:03:46.080Z,13.43
2024-01-11T11:06:14.775Z,11.90
2024-01-11T11:08:44.368Z,11.43
2024-01-11T11:11:15.129Z,13.35
2024-01-11T11:13:48.797Z,12.45
2024-01-11T11:16:17.447Z,13.00
2024-01-11T11:18:45.834Z,14.10
2024-01-11T11:21:14.959Z,13.23
2024-01-11T11:23:43.167Z,14.07
2024-01-11T11:26:17.799Z,14.20
2024-01-11T11:28:49.993Z,15.38
2024-01-11T11:31:36.933Z,14.95
2024-01-11T11:34:07.459Z,13.07
2024-01-11T11:36:36.445Z,12.48
2024-01-11T11:39:05.354Z,14.43
2024-01-11T11:41:34.310Z,11.82
2024-01-11T11:44:07.695Z,14.63
2024-01-11T11:46:36.282Z,11.20
2024-01-11T11:49:05.090Z,12.15
2024-01-11T11:51:35.187Z,12.30
2024-01-11T11:54:04.739Z,13.07
2024-01-11T11:56:33.164Z,11.80
2024-01-11T11:59:04.057Z,10.75
2024-01-11T12:01:34.780Z,11.63
2024-01-11T12:04:03.904Z,13.70
2024-01-11T12:06:32.439Z,12.65
2024-01-11T12:09:00.806Z,14.20
2024-01-11T12:11:29.893Z,12.30
2024-01-11T12:13:59.154Z,14.70
2024-01-11T12:16:28.697Z,11.52
2024-01-11T12:18:58.550Z,11.95
2024-01-11T12:21:28.239Z,9.93
2024-01-11T12:23:57.069Z,11.05
2024-01-11T12:26:26.311Z,12.02
2024-01-11T12:28:55.079Z,11.20
2024-01-11T12:31:24.529Z,11.02
2024-01-11T12:33:53.543Z,12.38
2024-01-11T12:36:23.194Z,10.48
2024-01-11T12:38:53.242Z,10.88
2024-01-11T12:41:24.307Z,11.10
2024-01-11T12:43:53.918Z,12.23
2024-01-11T12:46:22.229Z,11.20
2024-01-11T12:48:51.282Z,11.73
2024-01-11T12:51:22.540Z,12.80
2024-01-11T12:53:54.944Z,11.75
2024-01-11T12:56:24.458Z,11.13
2024-01-11T12:58:53.286Z,11.82
2024-01-11T13:01:22.152Z,11.02
2024-01-11T13:03:51.319Z,12.95
2024-01-11T13:06:20.875Z,12.25
2024-01-11T13:08:49.374Z,12.75
2024-01-11T13:11:22.223Z,11.80
2024-01-11T13:13:50.475Z,12.20
2024-01-11T13:16:20.317Z,11.57
2024-01-11T13:18:48.864Z,12.73
2024-01-11T13:21:19.503Z,12.43
2024-01-11T13:23:48.007Z,13.77
2024-01-11T13:26:16.511Z,12.57
2024-01-11T13:28:46.117Z,15.85
2024-01-11T13:31:14.221Z,14.50
2024-01-11T13:33:42.780Z,14.13
2024-01-11T13:36:11.027Z,13.50
2024-01-11T13:38:39.399Z,12.80
2024-01-11T13:41:09.490Z,15.23
2024-01-11T13:43:38.293Z,14.13
2024-01-11T13:46:07.771Z,14.77
2024-01-11T13:48:36.602Z,15.40
2024-01-11T13:51:05.509Z,15.77
2024-01-11T13:53:34.924Z,15.23
2024-01-11T13:56:03.500Z,14.63
2024-01-11T13:58:32.283Z,13.30
2024-01-11T14:01:00.766Z,14.82
2024-01-11T14:03:30.611Z,11.95
2024-01-11T14:05:59.286Z,15.05
2024-01-11T14:08:27.989Z,15.57
2024-01-11T14:10:56.346Z,14.88
2024-01-11T14:13:24.653Z,14.85
2024-01-11T14:15:53.123Z,15.18
2024-01-11T14:18:22.336Z,14.35
2024-01-11T14:20:52.264Z,16.48
2024-01-11T14:23:20.993Z,15.63
2024-01-11T14:25:50.213Z,14.05
2024-01-11T14:28:18.408Z,14.48
2024-01-11T14:30:47.446Z,14.20
2024-01-11T14:33:16.030Z,14.20
2024-01-11T14:35:44.296Z,14.77
2024-01-11T14:38:13.960Z,15.82
2024-01-11T14:40:42.961Z,13.50
2024-01-11T14:43:11.239Z,15.02
2024-01-11T14:45:39.497Z,15.30
2024-01-11T14:48:08.397Z,15.40
2024-01-11T14:50:36.540Z,14.25
2024-01-11T14:53:06.549Z,13.25
2024-01-11T14:55:39.211Z,16.30
2024-01-11T14:58:08.265Z,17.98
2024-01-11T15:00:36.468Z,16.35
2024-01-11T15:03:05.952Z,16.40
2024-01-11T15:05:35.412Z,15.07
2024-01-11T15:08:04.447Z,18.38
2024-01-11T15:10:33.448Z,17.27
2024-01-11T15:13:03.486Z,15.75
2024-01-11T15:15:32.015Z,17.88
2024-01-11T15:18:00.699Z,19.17
2024-01-11T15:20:29.018Z,18.20
2024-01-11T15:22:57.347Z,15.90
2024-01-11T15:25:27.911Z,18.88
2024-01-11T15:27:56.365Z,18.42
2024-01-11T15:30:26.067Z,21.48
2024-01-11T15:32:57.842Z,18.38
2024-01-11T15:35:28.068Z,16.63
2024-01-11T15:37:56.753Z,18.80
2024-01-11T15:40:25.111Z,19.08
2024-01-11T15:42:53.175Z,21.40
2024-01-11T15:45:23.108Z,19.40
2024-01-11T15:47:52.959Z,22.45
2024-01-11T15:50:21.602Z,19.45
2024-01-11T15:52:49.823Z,19.80
2024-01-11T15:55:18.102Z,21.65
2024-01-11T15:57:46.268Z,17.83
2024-01-11T16:00:15.524Z,22.60
2024-01-11T16:02:44.395Z,19.25
2024-01-11T16:05:14.140Z,22.10
2024-01-11T16:07:42.443Z,25.00
2024-01-11T16:10:11.822Z,17.40
2024-01-11T16:12:40.393Z,23.80
2024-01-11T16:15:09.200Z,25.52
2024-01-11T16:17:37.621Z,21.52
2024-01-11T16:20:08.240Z,19.77
2024-01-11T16:22:38.019Z,23.38
2024-01-11T16:25:07.623Z,20.48
2024-01-11T16:27:35.744Z,21.88
2024-01-11T16:30:04.857Z,21.30
2024-01-11T16:32:34.281Z,22.35
2024-01-11T16:35:06.844Z,23.00
2024-01-11T16:37:35.230Z,22.88
2024-01-11T16:40:04.944Z,21.38
2024-01-11T16:42:33.830Z,22.00
2024-01-11T16:45:02.084Z,23.73
2024-01-11T16:47:37.052Z,22.80
2024-01-11T16:50:07.320Z,23.75
2024-01-11T16:52:35.442Z,24.45
2024-01-11T16:55:05.559Z,26.45
2024-01-11T16:57:33.759Z,30.05
2024-01-11T17:00:04.000Z,23.65
2024-01-11T17:02:32.792Z,25.60
2024-01-11T17:05:01.148Z,24.83
2024-01-11T17:07:29.738Z,22.40
2024-01-11T17:09:58.287Z,24.20
2024-01-11T17:12:28.105Z,26.85
2024-01-11T17:14:57.891Z,24.77
2024-01-11T17:17:28.013Z,21.95
2024-01-11T17:19:56.216Z,26.55
2024-01-11T17:22:24.369Z,27.35
2024-01-11T17:24:53.340Z,26.40
2024-01-11T17:27:21.474Z,26.15
2024-01-11T17:29:51.606Z,26.08
2024-01-11T17:32:19.830Z,24.35
2024-01-11T17:34:53.237Z,24.50
2024-01-11T17:37:22.144Z,24.00
2024-01-11T17:39:50.543Z,25.55
2024-01-11T17:42:22.185Z,25.35
2024-01-11T17:44:51.887Z,25.25
2024-01-11T17:47:20.503Z,26.55
2024-01-11T17:49:48.929Z,24.77
2024-01-11T17:52:17.604Z,22.48
2024-01-11T17:54:45.858Z,24.05
2024-01-11T17:57:13.975Z,26.13
2024-01-11T17:59:44.374Z,25.38
2024-01-11T18:02:14.162Z,25.52
2024-01-11T18:04:43.686Z,21.92
2024-01-11T18:07:12.190Z,22.95
2024-01-11T18:09:40.495Z,25.33
2024-01-11T18:12:09.176Z,24.65
2024-01-11T18:14:37.411Z,24.33
2024-01-11T18:17:06.013Z,23.25
2024-01-11T18:19:36.011Z,24.65
2024-01-11T18:22:04.478Z,24.55
2024-01-11T18:24:33.323Z,22.73
2024-01-11T18:27:01.399Z,25.10
2024-01-11T18:29:29.733Z,19.98
2024-01-11T18:31:58.096Z,20.60
2024-01-11T18:34:26.253Z,21.48
2024-01-11T18:36:55.770Z,23.48
2024-01-11T18:39:23.971Z,23.15
2024-01-11T18:41:52.849Z,20.65
2024-01-11T18:44:21.745Z,22.30
2024-01-11T18:46:49.762Z,25.08
2024-01-11T18:49:19.673Z,20.70
2024-01-11T18:51:48.080Z,21.70
2024-01-11T18:54:18.576Z,21.63
2024-01-11T18:56:47.366Z,22.27
2024-01-11T18:59:15.549Z,19.30
2024-01-11T19:01:49.008Z,20.80
2024-01-11T19:04:17.583Z,21.63
2024-01-11T19:06:46.362Z,24.10
2024-01-11T19:09:14.708Z,22.20
2024-01-11T19:11:44.503Z,25.63
2024-01-11T19:14:15.533Z,19.65
2024-01-11T19:16:43.733Z,20.95
2024-01-11T19:19:13.020Z,21.48
2024-01-11T19:21:41.215Z,17.92
2024-01-11T19:24:09.675Z,19.60
2024-01-11T19:26:41.752Z,19.33
2024-01-11T19:29:11.630Z,21.48
2024-01-11T19:31:39.740Z,20.20
2024-01-11T19:34:07.873Z,18.08
2024-01-11T19:36:39.936Z,21.20
2024-01-11T19:39:08.453Z,20.25
2024-01-11T19:41:36.766Z,17.17
2024-01-11T19:44:04.960Z,19.17
2024-01-11T19:46:34.409Z,19.77
2024-01-11T19:49:02.816Z,19.50
2024-01-11T19:51:32.945Z,19.67
2024-01-11T19:54:01.158Z,22.63
2024-01-11T19:56:31.956Z,17.92
2024-01-11T19:59:00.907Z,17.48
2024-01-11T20:01:29.333Z,20.48
2024-01-11T20:04:00.884Z,21.27
2024-01-11T20:06:29.262Z,21.95
2024-01-11T20:08:58.103Z,19.80
2024-01-11T20:11:26.916Z,23.30
2024-01-11T20:13:55.083Z,24.17
2024-01-11T20:16:23.711Z,19.88
2024-01-11T20:18:51.769Z,20.48
2024-01-11T20:21:21.995Z,20.65
2024-01-11T20:23:50.616Z,19.45
2024-01-11T20:26:21.180Z,23.98
2024-01-11T20:28:51.618Z,22.35
2024-01-11T20:31:19.721Z,21.55
2024-01-11T20:33:47.929Z,18.05
2024-01-11T20:36:16.382Z,20.67
2024-01-11T20:38:45.872Z,17.33
2024-01-11T20:41:15.493Z,19.88
2024-01-11T20:43:45.690Z,18.40
2024-01-11T20:46:14.736Z,20.42
2024-01-11T20:48:43.296Z,18.42
2024-01-11T20:51:14.219Z,19.80
2024-01-11T20:53:42.392Z,17.58
2024-01-11T20:56:12.623Z,17.75
2024-01-11T20:58:41.852Z,16.10
2024-01-11T21:01:10.063Z,18.40
2024-01-11T21:03:38.339Z,18.23
2024-01-11T21:06:07.355Z,18.83
2024-01-11T21:08:35.920Z,18.58
2024-01-11T21:11:04.072Z,18.15
2024-01-11T21:13:33.585Z,18.63
2024-01-11T21:16:01.683Z,16.85
2024-01-11T21:18:31.307Z,20.52
2024-01-11T21:21:00.409Z,18.23
2024-01-11T21:23:31.068Z,20.75
2024-01-11T21:25:59.549Z,19.13
2024-01-11T21:28:27.729Z,19.90
2024-01-11T21:30:57.392Z,20.33
2024-01-11T21:33:25.870Z,16.27
2024-01-11T21:35:54.339Z,15.20
2024-01-11T21:38:22.337Z,16.25
2024-01-11T21:40:52.822Z,15.98
2024-01-11T21:43:20.813Z,15.80
2024-01-11T21:45:49.007Z,17.50
2024-01-11T21:48:18.497Z,17.38
2024-01-11T21:50:46.689Z,20.05
2024-01-11T21:53:14.813Z,17.48
2024-01-11T21:55:42.984Z,19.65
2024-01-11T21:58:11.146Z,15.85
2024-01-11T22:00:40.062Z,19.45
2024-01-11T22:03:08.272Z,18.25
2024-01-11T22:05:38.374Z,19.98
2024-01-11T22:08:06.465Z,17.75
2024-01-11T22:10:34.734Z,18.35
2024-01-11T22:13:03.047Z,19.65
2024-01-11T22:15:31.332Z,17.98
2024-01-11T22:17:59.789Z,16.20
2024-01-11T22:20:28.370Z,17.05
2024-01-11T22:22:58.512Z,16.20
2024-01-11T22:25:27.304Z,17.25
2024-01-11T22:27:56.040Z,17.80
2024-01-11T22:30:24.432Z,17.48
2024-01-11T22:32:52.702Z,14.82
2024-01-11T22:35:21.410Z,18.92
2024-01-11T22:37:49.663Z,18.40
2024-01-11T22:40:19.150Z,17.13
2024-01-11T22:42:47.611Z,16.92
2024-01-11T22:45:15.785Z,17.80
2024-01-11T22:47:43.976Z,14.23
2024-01-11T22:50:12.126Z,15.65
2024-01-11T22:52:40.558Z,15.52
2024-01-11T22:55:08.968Z,15.75
2024-01-11T22:57:38.326Z,15.65
2024-01-11T23:00:21.908Z,13.63
2024-01-11T23:02:51.521Z,14.05
2024-01-11T23:05:20.628Z,14.20
2024-01-11T23:07:49.365Z,11.80
2024-01-11T23:10:18.207Z,12.25
2024-01-11T23:12:48.234Z,13.48
2024-01-11T23:15:16.344Z,12.55
2024-01-11T23:17:44.788Z,13.07
2024-01-11T23:20:13.876Z,11.15
2024-01-11T23:22:42.142Z,13.32
2024-01-11T23:25:10.758Z,12.15
2024-01-11T23:27:38.967Z,10.02
2024-01-11T23:30:10.558Z,9.82
2024-01-11T23:32:39.891Z,12.10
2024-01-11T23:35:08.358Z,12.00
2024-01-11T23:37:38.057Z,11.20
2024-01-11T23:40:08.701Z,11.45
2024-01-11T23:42:36.896Z,12.70
2024-01-11T23:45:09.125Z,9.88
2024-01-11T23:47:38.910Z,10.13
2024-01-11T23:50:08.580Z,10.60
2024-01-11T23:52:36.652Z,11.45
2024-01-11T23:55:04.958Z,11.25
2024-01-11T23:57:33.322Z,12.77
